Latest Weather Observations for Carnarvon

IDW60801

Issued at 5:43 pm WST Tuesday 22 October 2019 (issued every 10 minutes, with the page automatically refreshed every 10 minutes)

About weather observations | Map of weather stations | Latest weather observations for WA | Other Formats
Station Details ID: 006011 Name: CARNARVON AIRPORT Lat: -24.89 Lon: 113.67 Height: 4.0 m
Data from the previous 72 hours. | See also: Recent months at Carnarvon
Date/Time
WST
Temp
°C
App
Temp
°C
Dew
Point
°C
Rel
Hum
%
Delta-T
°C
Wind Press
QNH
hPa
Press
MSL
hPa
Rain since
9am
mm
Dir  Spd
km/h
Gust
km/h
Spd
kts
Gust
kts
22/05:30pm 23.1 20.6 18.0 73 3.2 SW 28 35 15 19 1015.3 1015.3 0.0
22/05:00pm 23.9 21.2 18.5 72 3.4 SW 30 41 16 22 1015.3 1015.3 0.0
22/04:30pm 24.8 21.8 18.7 69 3.9 SW 32 39 17 21 1015.1 1015.1 0.0
22/04:00pm 24.8 22.1 18.5 68 4.0 SSW 30 35 16 19 1015.1 1015.1 0.0
22/03:30pm 24.6 21.2 17.8 66 4.3 SW 32 39 17 21 1015.1 1015.1 0.0
22/03:00pm 25.0 21.3 17.5 63 4.7 SW 33 41 18 22 1015.1 1015.1 0.0
22/02:30pm 25.2 21.7 16.6 59 5.3 SW 30 39 16 21 1015.3 1015.3 0.0
22/02:00pm 24.9 21.1 16.6 60 5.1 SW 32 37 17 20 1015.5 1015.5 0.0
22/01:30pm 24.1 20.8 16.9 64 4.4 SW 30 37 16 20 1015.8 1015.8 0.0
22/01:00pm 24.7 21.9 16.4 60 5.1 SW 26 33 14 18 1016.2 1016.2 0.0
22/12:30pm 24.7 21.1 15.3 56 5.7 SW 28 33 15 18 1016.5 1016.5 0.0
22/12:00pm 24.1 21.0 15.6 59 5.1 SSW 26 30 14 16 1016.8 1016.8 0.0
22/11:30am 23.6 21.2 16.4 64 4.4 SSW 24 32 13 17 1017.1 1017.1 0.0
22/11:00am 23.0 19.0 16.3 66 4.1 SSW 32 37 17 20 1017.5 1017.5 0.0
22/10:30am 22.8 19.4 17.7 73 3.2 SSW 32 39 17 21 1017.7 1017.7 0.0
22/10:00am 22.6 19.5 17.5 73 3.2 SSW 30 35 16 19 1017.8 1017.8 0.0
22/09:30am 23.2 20.8 16.5 66 4.1 S 24 33 13 18 1018.0 1018.0 0.0
22/09:00am 22.0 18.8 16.3 70 3.4 S 28 35 15 19 1018.1 1018.1 0.0
22/08:30am 21.9 19.5 17.3 75 2.8 S 26 33 14 18 1018.1 1018.1 0.0
22/08:00am 21.1 18.1 16.7 76 2.7 S 28 37 15 20 1018.0 1018.0 0.0
22/07:30am 20.4 17.0 16.8 80 2.2 S 30 39 16 21 1017.5 1017.5 0.0
22/07:00am 19.7 16.7 16.9 84 1.7 S 28 39 15 21 1017.2 1017.2 0.0
22/06:30am 18.9 15.9 16.7 87 1.3 S 28 33 15 18 1017.0 1017.0 0.0
22/06:00am 18.3 16.4 16.6 90 1.0 S 22 28 12 15 1017.0 1017.0 0.0
22/05:30am 18.4 16.1 16.7 90 1.0 S 24 32 13 17 1016.7 1016.7 0.0
22/05:00am 18.4 16.5 16.6 89 1.1 S 22 30 12 16 1016.4 1016.4 0.0
22/04:30am 18.5 16.1 16.5 88 1.2 S 24 32 13 17 1016.6 1016.6 0.0
22/04:00am 18.4 15.8 16.0 86 1.4 S 24 33 13 18 1016.5 1016.5 0.0
22/03:30am 18.7 15.7 15.9 84 1.7 S 26 37 14 20 1016.9 1016.9 0.0
22/03:00am 18.8 16.0 16.4 86 1.4 S 26 33 14 18 1017.2 1017.2 0.0
22/02:30am 18.9 16.6 16.7 87 1.3 S 24 33 13 18 1017.4 1017.4 0.0
22/02:00am 19.1 17.7 16.9 87 1.3 S 20 28 11 15 1017.8 1017.8 0.0
22/01:30am 19.4 17.8 17.5 89 1.2 S 22 30 12 16 1017.7 1017.7 0.0
22/01:00am 19.5 17.2 17.5 88 1.2 S 26 32 14 17 1017.8 1017.8 0.0
22/12:30am 19.4 17.7 17.2 87 1.3 S 22 30 12 16 1018.1 1018.1 0.0
22/12:00am 19.3 18.0 16.9 86 1.4 S 19 22 10 12 1018.5 1018.5 0.0
 
Date/Time
WST
Temp
°C
App
Temp
°C
Dew
Point
°C
Rel
Hum
%
Delta-T
°C
Wind Press
QNH
hPa
Press
MSL
hPa
Rain since
9am
mm
Dir  Spd
km/h
Gust
km/h
Spd
kts
Gust
kts
21/11:30pm 19.1 18.4 16.5 85 1.6 S 15 20 8 11 1018.7 1018.7 0.0
21/11:00pm 19.5 18.8 16.5 83 1.8 SSE 15 20 8 11 1018.8 1018.8 0.0
21/10:30pm 19.8 18.2 16.4 81 2.0 S 20 26 11 14 1018.3 1018.3 0.0
21/10:00pm 20.2 18.1 16.2 78 2.4 S 22 30 12 16 1018.6 1018.6 0.0
21/09:30pm 20.8 17.7 16.6 77 2.5 S 28 35 15 19 1018.3 1018.3 0.0
21/09:00pm 20.9 17.6 17.1 79 2.3 SSW 30 37 16 20 1018.1 1018.1 0.0
21/08:30pm 21.0 17.2 16.6 76 2.7 SSW 32 43 17 23 1017.8 1017.8 0.0
21/08:00pm 21.1 17.3 17.1 78 2.4 SSW 33 44 18 24 1017.8 1017.8 0.0
21/07:30pm 21.2 16.9 17.0 77 2.6 SSW 35 44 19 24 1017.4 1017.4 0.0
21/07:00pm 21.2 16.4 16.6 75 2.8 SSW 37 46 20 25 1017.0 1017.0 0.0
21/06:30pm 21.5 17.7 16.7 74 2.9 SSW 32 41 17 22 1017.1 1017.1 0.0
21/06:00pm 22.3 19.1 17.2 73 3.1 SSW 30 41 16 22 1016.8 1016.8 0.0
21/05:30pm 22.7 19.0 16.9 70 3.6 SSW 32 43 17 23 1016.4 1016.4 0.0
21/05:00pm 23.4 19.9 17.4 69 3.7 SSW 32 41 17 22 1016.4 1016.4 0.0
21/04:30pm 23.7 19.9 16.7 65 4.3 SW 32 39 17 21 1016.3 1016.3 0.0
21/04:00pm 24.0 20.1 16.5 63 4.6 SW 32 39 17 21 1016.4 1016.4 0.0
21/03:30pm 24.4 20.5 16.4 61 4.9 SSW 32 41 17 22 1016.2 1016.2 0.0
21/03:00pm 24.6 21.1 16.6 61 4.9 SW 30 39 16 21 1016.4 1016.4 0.0
21/02:30pm 24.7 21.7 16.7 61 4.9 SW 28 32 15 17 1016.6 1016.6 0.0
21/02:00pm 24.1 21.2 16.1 61 4.9 SW 26 35 14 19 1016.7 1016.7 0.0
21/01:30pm 24.8 21.5 16.0 58 5.4 SSW 28 35 15 19 1017.0 1017.0 0.0
21/01:00pm 25.9 21.8 15.0 51 6.6 SSW 30 35 16 19 1017.3 1017.3 0.0
21/12:30pm 25.0 20.5 13.9 50 6.5 SSW 30 37 16 20 1017.5 1017.5 0.0
21/12:00pm 23.8 19.8 16.3 63 4.6 SSW 32 39 17 21 1017.9 1017.9 0.0
21/11:30am 23.7 19.7 16.7 65 4.3 SSW 33 41 18 22 1018.1 1018.1 0.0
21/11:00am 23.5 19.0 16.3 64 4.4 SSW 35 43 19 23 1018.3 1018.3 0.0
21/10:30am 23.9 20.7 16.4 63 4.6 SSW 28 35 15 19 1018.7 1018.7 0.0
21/10:00am 24.8 21.4 15.7 57 5.5 S 28 37 15 20 1018.9 1018.9 0.0
21/09:30am 22.9 19.1 15.7 64 4.3 S 30 39 16 21 1018.8 1018.8 0.0
21/09:00am 22.8 19.4 15.9 65 4.2 S 28 35 15 19 1018.7 1018.7 0.0
21/08:30am 22.0 18.5 15.6 67 3.8 S 28 35 15 19 1018.6 1018.6 0.0
21/08:00am 21.3 18.0 16.0 72 3.2 S 28 35 15 19 1018.5 1018.5 0.0
21/07:30am 20.3 16.9 15.9 76 2.6 SSE 28 35 15 19 1018.4 1018.4 0.0
21/07:00am 19.6 17.5 16.3 81 2.0 SSE 22 28 12 15 1018.4 1018.4 0.0
21/06:30am 18.3 17.1 16.1 87 1.3 SSE 17 20 9 11 1018.0 1018.0 0.0
21/06:00am 17.5 16.6 15.8 90 1.0 SSE 15 17 8 9 1017.8 1017.8 0.0
21/05:30am 17.9 17.1 16.1 89 1.1 SSE 15 19 8 10 1017.7 1017.7 0.0
21/05:00am 18.5 17.0 16.3 87 1.3 S 19 22 10 12 1017.5 1017.5 0.0
21/04:30am 18.6 16.7 15.7 83 1.7 SSE 20 26 11 14 1017.2 1017.2 0.0
21/04:00am 18.7 16.8 15.8 83 1.7 S 20 28 11 15 1017.1 1017.1 0.0
21/03:30am 18.8 17.2 16.0 84 1.7 SSE 19 26 10 14 1017.1 1017.1 0.0
21/03:00am 18.9 17.1 15.9 83 1.8 S 20 26 11 14 1016.9 1016.9 0.0
21/02:30am 19.2 17.6 16.4 84 1.7 S 20 28 11 15 1016.9 1016.9 0.0
21/02:00am 19.2 17.6 16.6 85 1.6 S 20 26 11 14 1017.1 1017.1 0.0
21/01:30am 19.5 17.4 17.1 86 1.5 S 24 28 13 15 1017.3 1017.3 0.0
21/01:00am 19.4 17.8 16.6 84 1.7 S 20 28 11 15 1017.4 1017.4 0.0
21/12:30am 19.6 18.0 16.6 83 1.8 S 20 24 11 13 1017.4 1017.4 0.0
21/12:00am 19.7 18.1 16.5 82 1.9 S 20 28 11 15 1017.7 1017.7 0.0
 
Date/Time
WST
Temp
°C
App
Temp
°C
Dew
Point
°C
Rel
Hum
%
Delta-T
°C
Wind Press
QNH
hPa
Press
MSL
hPa
Rain since
9am
mm
Dir  Spd
km/h
Gust
km/h
Spd
kts
Gust
kts
20/11:30pm 20.0 18.1 16.8 82 1.9 S 22 28 12 15 1017.8 1017.8 0.0
20/11:00pm 20.3 17.6 16.7 80 2.2 S 26 33 14 18 1017.8 1017.8 0.0
20/10:30pm 20.5 17.8 16.5 78 2.4 S 26 35 14 19 1017.9 1017.9 0.0
20/10:00pm 20.5 18.1 16.3 77 2.5 S 24 30 13 16 1018.0 1018.0 0.0
20/09:30pm 20.8 18.4 16.4 76 2.7 S 24 30 13 16 1018.2 1018.2 0.0
20/09:00pm 20.9 18.2 16.5 76 2.7 SSW 26 33 14 18 1018.1 1018.1 0.0
20/08:30pm 21.0 18.2 16.4 75 2.8 SSW 26 35 14 19 1018.1 1018.1 0.0
20/08:00pm 21.2 18.5 16.6 75 2.8 SSW 26 33 14 18 1017.7 1017.7 0.0
20/07:30pm 21.4 18.3 15.7 70 3.4 SSW 26 33 14 18 1017.5 1017.5 0.0
20/07:00pm 21.5 17.9 15.3 68 3.7 SSW 28 35 15 19 1017.3 1017.3 0.0
20/06:30pm 21.6 17.4 15.7 69 3.5 SSW 32 41 17 22 1017.1 1017.1 0.0
20/06:00pm 22.1 18.2 15.5 66 3.9 SSW 30 39 16 21 1017.0 1017.0 0.0
20/05:30pm 22.7 18.2 15.5 64 4.3 SSW 33 43 18 23 1016.8 1016.8 0.0
20/05:00pm 23.0 19.3 16.1 65 4.2 SW 30 37 16 20 1016.7 1016.7 0.0
20/04:30pm 23.6 20.9 16.6 65 4.3 SW 26 35 14 19 1016.7 1016.7 0.0
20/04:00pm 23.8 21.3 17.1 66 4.1 SW 26 33 14 18 1016.6 1016.6 0.0
20/03:30pm 23.2 20.5 16.7 67 4.0 SW 26 32 14 17 1016.6 1016.6 0.0
20/03:00pm 23.7 20.7 16.7 65 4.3 SW 28 33 15 18 1016.8 1016.8 0.0
20/02:30pm 23.9 21.2 16.7 64 4.4 SW 26 33 14 18 1017.0 1017.0 0.0
20/02:00pm 24.5 22.0 16.2 60 5.1 SW 24 32 13 17 1017.1 1017.1 0.0
20/01:30pm 23.9 21.0 16.2 62 4.7 SW 26 32 14 17 1017.1 1017.1 0.0
20/01:00pm 24.7 22.5 16.9 62 4.8 SW 24 30 13 16 1017.4 1017.4 0.0
20/12:30pm 23.8 21.5 16.6 64 4.4 SW 24 30 13 16 1017.7 1017.7 0.0
20/12:00pm 23.8 21.4 16.3 63 4.6 SW 24 30 13 16 1018.0 1018.0 0.0
20/11:30am 23.6 21.3 16.6 65 4.3 SW 24 30 13 16 1018.1 1018.1 0.0
20/11:00am 23.5 21.6 16.8 66 4.1 SSW 22 30 12 16 1018.3 1018.3 0.0
20/10:30am 24.0 22.7 17.3 66 4.2 SW 20 26 11 14 1018.3 1018.3 0.0
20/10:00am 23.6 22.4 17.1 67 4.0 SW 19 24 10 13 1018.3 1018.3 0.0
20/09:30am 23.1 23.1 17.3 70 3.6 SW 13 20 7 11 1018.3 1018.3 0.0
20/09:00am 22.3 22.1 16.8 71 3.4 SSW 13 19 7 10 1018.3 1018.3 0.0
20/08:30am 22.5 22.9 17.2 72 3.3 SSE 11 19 6 10 1018.2 1018.2 0.0
20/08:00am 21.6 21.9 17.0 75 2.8 SSE 11 17 6 9 1018.2 1018.2 0.0
20/07:30am 20.6 21.9 18.5 88 1.3 ESE 9 11 5 6 1018.3 1018.3 0.0
20/07:00am 18.2 19.6 17.7 97 0.3 ESE 7 9 4 5 1018.1 1018.1 0.0
20/06:30am 17.3 17.5 16.7 96 0.4 SE 11 13 6 7 1017.8 1017.8 0.0
20/06:00am 17.3 17.8 16.5 95 0.5 SSE 9 11 5 6 1017.3 1017.3 0.0
20/05:30am 17.6 17.7 16.6 94 0.6 SSE 11 11 6 6 1017.1 1017.1 0.0
20/05:00am 18.3 19.0 17.1 93 0.7 SE 9 11 5 6 1016.7 1016.7 0.0
20/04:30am 18.3 18.9 16.8 91 0.9 ESE 9 11 5 6 1016.8 1016.8 0.0
20/04:00am 19.1 19.9 17.2 89 1.2 SE 9 13 5 7 1016.5 1016.5 0.0
20/03:40am 19.7 20.0 17.8 89 1.2 SSE 13 17 7 9 1016.5 1016.5 0.0
20/03:30am 19.8 19.7 17.9 89 1.2 S 15 20 8 11 1016.4 1016.4 0.0
20/03:00am 19.7 18.8 17.8 89 1.2 SSW 19 24 10 13 1016.1 1016.1 0.0
20/02:30am 19.8 18.9 18.1 90 1.1 SSW 20 24 11 13 1016.0 1016.0 0.0
20/02:18am 19.8 19.0 18.1 90 1.1 SSW 19 24 10 13 1016.0 1016.0 0.0
20/02:02am 19.8 18.5 18.1 90 1.1 SSW 22 30 12 16 1016.0 1016.0 0.0
20/02:00am 19.8 18.5 18.1 90 1.1 SSW 22 28 12 15 1016.0 1016.0 0.0
20/01:33am 19.8 18.9 18.3 91 0.9 SSW 20 26 11 14 1016.1 1016.1 0.0
20/01:30am 19.9 19.1 18.4 91 0.9 SSW 20 28 11 15 1016.1 1016.1 0.0
20/01:00am 19.9 18.6 18.2 90 1.1 SSW 22 28 12 15 1016.2 1016.2 0.0
20/12:30am 19.8 18.9 18.3 91 0.9 SSW 20 28 11 15 1016.3 1016.3 0.0
20/12:00am 20.0 19.2 18.5 91 0.9 SSW 20 26 11 14 1016.5 1016.5 0.0
 
Date/Time
WST
Temp
°C
App
Temp
°C
Dew
Point
°C
Rel
Hum
%
Delta-T
°C
Wind Press
QNH
hPa
Press
MSL
hPa
Rain since
9am
mm
Dir  Spd
km/h
Gust
km/h
Spd
kts
Gust
kts
19/11:30pm 20.1 18.5 18.4 90 1.1 SSW 24 28 13 15 1016.6 1016.6 0.0
19/11:00pm 20.2 19.4 18.5 90 1.1 SSW 20 28 11 15 1016.6 1016.6 0.0
19/10:30pm 20.3 19.3 18.8 91 0.9 SW 22 30 12 16 1016.9 1016.9 0.0
19/10:00pm 20.3 18.8 18.6 90 1.1 SW 24 32 13 17 1016.9 1016.9 0.0
19/09:30pm 20.3 19.1 18.4 89 1.2 SW 22 28 12 15 1017.0 1017.0 0.0
19/09:00pm 20.4 19.2 18.3 88 1.3 SW 22 30 12 16 1016.9 1016.9 0.0
19/08:30pm 20.5 19.8 18.6 89 1.2 SW 20 30 11 16 1016.8 1016.8 0.0
19/08:00pm 20.6 19.8 18.4 87 1.4 SW 20 28 11 15 1016.7 1016.7 0.0
19/07:30pm 20.6 20.4 18.4 87 1.4 SW 17 24 9 13 1016.4 1016.4 0.0
19/07:00pm 20.8 20.1 18.6 87 1.4 SW 20 24 11 13 1016.0 1016.0 0.0
19/06:30pm 21.0 19.8 18.4 85 1.6 SW 22 26 12 14 1016.0 1016.0 0.0
19/06:00pm 21.7 20.5 18.5 82 2.0 SW 22 30 12 16 1015.7 1015.7 0.0

Other formats

Comma delimited format used in spreadsheet applications
http://www.bom.gov.au/fwo/IDW60801/IDW60801.94300.axf

JavaScript Object Notation format (JSON) in row-major order
http://www.bom.gov.au/fwo/IDW60801/IDW60801.94300.json

Data quality

Most of these data are generated automatically and are frequently updated. Quality checks on data are not normally performed. It is possible for incorrect values to appear. Refer to information at About Latest Weather Observations and please check the disclaimer before using these data.